Terminal Aerodrome Forecast
Issued by NWS Memphis, TN

Home | Current Version | Previous Version | Text Only | Print | Product List | Glossary On
Versions: 1 2 3 4 5 6 7 8 9 10 11 12 13 14 15 16 17 18 19 20 21 22 23 24 25 26 27
000
FTUS44 KMEG 082044 AAL
TAFMEM
TAF AMD
KMEM 082044Z 0821/0924 20011G22KT P6SM SCT250
     FM090300 18015G25KT P6SM BKN150 WS020/20055KT
     FM091000 20018G28KT P6SM VCSH SCT025 BKN080 BKN150
      WS020/20050KT
     FM091500 20020G28KT P6SM VCSH SCT025 BKN060 OVC080
     FM091900 22020G28KT P6SM VCTS BKN050CB=

USA.gov is the U.S. government's official web portal to all federal, state and local government web resources and services.